createdAt,value
2022-12-03T00:03:37.114Z,2.34
2022-12-03T00:07:39.830Z,2.41
2022-12-03T00:11:41.398Z,2.41
2022-12-03T00:15:43.043Z,2.49
2022-12-03T00:19:45.933Z,2.49
2022-12-03T00:23:48.813Z,2.50
2022-12-03T00:27:50.377Z,2.49
2022-12-03T00:31:52.038Z,2.48
2022-12-03T00:35:53.636Z,2.54
2022-12-03T00:39:55.204Z,2.57
2022-12-03T00:43:57.866Z,2.56
2022-12-03T00:47:59.534Z,2.59
2022-12-03T00:52:01.149Z,2.64
2022-12-03T00:56:02.751Z,2.65
2022-12-03T01:00:06.114Z,2.63
2022-12-03T01:04:07.825Z,2.64
2022-12-03T01:08:09.497Z,2.66
2022-12-03T01:12:12.073Z,2.64
2022-12-03T01:16:13.857Z,2.70
2022-12-03T01:20:15.446Z,2.76
2022-12-03T01:24:18.233Z,2.75
2022-12-03T01:28:19.782Z,2.73
2022-12-03T01:32:21.497Z,2.71
2022-12-03T01:36:23.264Z,2.79
2022-12-03T01:40:25.043Z,2.80
2022-12-03T01:44:31.462Z,2.84
2022-12-03T01:48:35.705Z,2.83
2022-12-03T01:52:39.265Z,2.89
2022-12-03T01:56:40.855Z,2.87
2022-12-03T02:00:42.422Z,2.84
2022-12-03T02:04:44.059Z,2.87
2022-12-03T02:08:46.792Z,2.93
2022-12-03T02:13:14.771Z,2.98
2022-12-03T02:17:17.445Z,2.97
2022-12-03T02:21:49.407Z,2.97
2022-12-03T02:25:50.986Z,3.01
2022-12-03T02:29:52.829Z,3.03
2022-12-03T02:33:54.695Z,3.05
2022-12-03T02:38:02.531Z,3.03
2022-12-03T02:42:23.712Z,3.07
2022-12-03T02:46:25.408Z,3.11
2022-12-03T02:50:31.731Z,3.14
2022-12-03T02:54:33.387Z,3.15
2022-12-03T02:58:35.384Z,3.12
2022-12-03T03:02:39.130Z,3.13
2022-12-03T03:06:40.824Z,3.19
2022-12-03T03:10:43.671Z,3.21
2022-12-03T03:14:45.476Z,3.20
2022-12-03T03:18:47.414Z,3.20
2022-12-03T03:22:49.011Z,3.13
2022-12-03T03:26:50.977Z,3.17
2022-12-03T03:30:53.192Z,3.20
2022-12-03T03:34:56.037Z,3.23
2022-12-03T03:38:57.640Z,3.20
2022-12-03T03:43:00.254Z,3.07
2022-12-03T03:47:02.435Z,3.05
2022-12-03T03:51:09.001Z,3.09
2022-12-03T03:55:11.694Z,3.03
2022-12-03T03:59:14.065Z,2.97
2022-12-03T04:03:15.710Z,3.00
2022-12-03T04:07:17.700Z,3.00
2022-12-03T04:11:37.968Z,3.07
2022-12-03T04:15:39.576Z,3.08
2022-12-03T04:19:41.140Z,3.11
2022-12-03T04:23:42.765Z,3.17
2022-12-03T04:28:03.671Z,3.17
2022-12-03T04:32:23.760Z,3.16
2022-12-03T04:36:25.310Z,3.22
2022-12-03T04:40:45.587Z,3.23
2022-12-03T04:44:47.195Z,3.24
2022-12-03T04:48:48.771Z,3.19
2022-12-03T04:52:50.385Z,3.18
2022-12-03T04:56:52.027Z,3.23
2022-12-03T05:00:53.668Z,3.29
2022-12-03T05:04:55.503Z,3.29
2022-12-03T05:08:57.316Z,3.31
2022-12-03T05:12:58.986Z,3.31
2022-12-03T05:17:00.632Z,3.24
2022-12-03T05:21:02.283Z,3.24
2022-12-03T05:25:04.280Z,3.27
2022-12-03T05:29:05.879Z,3.26
2022-12-03T05:33:07.566Z,3.24
2022-12-03T05:37:09.175Z,3.24
2022-12-03T05:41:29.226Z,3.23
2022-12-03T05:45:36.916Z,3.25
2022-12-03T05:49:38.505Z,3.18
2022-12-03T05:53:40.092Z,3.06
2022-12-03T05:57:42.044Z,3.07
2022-12-03T06:01:43.663Z,3.09
2022-12-03T06:05:45.347Z,3.13
2022-12-03T06:09:46.938Z,3.13
2022-12-03T06:13:48.583Z,3.08
2022-12-03T06:17:50.346Z,3.05
2022-12-03T06:21:51.926Z,3.06
2022-12-03T06:25:53.490Z,3.06
2022-12-03T06:29:55.115Z,3.06
2022-12-03T06:33:57.010Z,3.04
2022-12-03T06:37:58.754Z,2.97
2022-12-03T06:42:00.363Z,3.04
2022-12-03T06:46:02.018Z,3.00
2022-12-03T06:50:05.052Z,2.99
2022-12-03T06:54:06.914Z,2.98
2022-12-03T06:58:08.531Z,2.99
2022-12-03T07:02:11.847Z,2.99
2022-12-03T07:06:14.082Z,2.91
2022-12-03T07:10:15.796Z,2.91
2022-12-03T07:14:21.362Z,2.95
2022-12-03T07:18:22.982Z,2.95
2022-12-03T07:22:25.089Z,2.97
2022-12-03T07:26:26.867Z,2.95
2022-12-03T07:30:28.940Z,2.96
2022-12-03T07:34:31.929Z,2.96
2022-12-03T07:38:33.468Z,2.95
2022-12-03T07:42:35.094Z,2.97
2022-12-03T07:46:36.755Z,3.04
2022-12-03T07:50:38.488Z,3.16
2022-12-03T07:54:40.083Z,3.26
2022-12-03T07:58:41.638Z,3.31
2022-12-03T08:02:43.355Z,3.37
2022-12-03T08:06:45.699Z,3.40
2022-12-03T08:10:47.255Z,3.42
2022-12-03T08:14:49.296Z,3.44
2022-12-03T08:18:54.265Z,3.59
2022-12-03T08:22:57.363Z,3.67
2022-12-03T08:26:59.414Z,3.76
2022-12-03T08:31:07.534Z,3.84
2022-12-03T08:35:18.518Z,3.96
2022-12-03T08:39:33.749Z,3.98
2022-12-03T08:43:42.036Z,4.02
2022-12-03T08:47:43.677Z,4.04
2022-12-03T08:51:45.268Z,4.15
2022-12-03T08:55:51.743Z,4.26
2022-12-03T09:00:20.545Z,4.35
2022-12-03T09:04:25.307Z,4.44
2022-12-03T09:08:26.964Z,4.57
2022-12-03T09:12:28.638Z,4.67
2022-12-03T09:16:30.335Z,4.71
2022-12-03T09:20:32.592Z,4.73
2022-12-03T09:24:34.252Z,4.70
2022-12-03T09:28:35.829Z,4.72
2022-12-03T09:32:37.463Z,4.77
2022-12-03T09:36:39.292Z,4.89
2022-12-03T09:40:41.412Z,4.99
2022-12-03T09:44:43.563Z,5.08
2022-12-03T09:48:45.331Z,5.18
2022-12-03T09:52:49.901Z,5.13
2022-12-03T09:56:53.624Z,5.17
2022-12-03T10:00:56.635Z,5.20
2022-12-03T10:04:58.666Z,5.23
2022-12-03T10:09:00.903Z,5.29
2022-12-03T10:13:03.599Z,5.27
2022-12-03T10:17:06.152Z,5.32
2022-12-03T10:21:22.917Z,5.47
2022-12-03T10:25:24.517Z,5.54
2022-12-03T10:29:34.383Z,5.55
2022-12-03T10:33:39.031Z,5.55
2022-12-03T10:38:06.756Z,5.52
2022-12-03T10:42:18.604Z,5.41
2022-12-03T10:46:23.398Z,5.40
2022-12-03T10:50:25.222Z,5.37
2022-12-03T10:54:28.924Z,5.46
2022-12-03T10:58:35.121Z,5.60
2022-12-03T11:02:37.361Z,5.68
2022-12-03T11:06:38.951Z,5.71
2022-12-03T11:10:40.560Z,5.73
2022-12-03T11:14:54.688Z,5.82
2022-12-03T11:18:56.502Z,5.85
2022-12-03T11:22:58.766Z,5.89
2022-12-03T11:27:00.323Z,5.88
2022-12-03T11:31:09.780Z,5.85
2022-12-03T11:35:23.558Z,5.86
2022-12-03T11:39:50.473Z,5.87
2022-12-03T11:43:52.086Z,5.84
2022-12-03T11:47:59.425Z,5.84
2022-12-03T11:52:11.974Z,5.85
2022-12-03T11:56:20.151Z,5.90
2022-12-03T12:00:24.482Z,5.84
2022-12-03T12:04:29.634Z,5.83
2022-12-03T12:08:32.107Z,5.81
2022-12-03T12:12:47.156Z,5.83
2022-12-03T12:16:55.221Z,5.81
2022-12-03T12:21:35.531Z,5.86
2022-12-03T12:25:40.315Z,5.83
2022-12-03T12:29:44.193Z,5.89
2022-12-03T12:34:01.623Z,5.90
2022-12-03T12:38:15.339Z,5.90
2022-12-03T12:42:30.176Z,5.89
2022-12-03T12:46:48.457Z,5.92
2022-12-03T12:50:58.561Z,5.94
2022-12-03T12:55:04.644Z,5.90
2022-12-03T12:59:20.691Z,5.82
2022-12-03T13:03:27.473Z,5.79
2022-12-03T13:07:29.459Z,5.74
2022-12-03T13:11:41.501Z,5.79
2022-12-03T13:15:52.293Z,5.65
2022-12-03T13:20:06.719Z,5.47
2022-12-03T13:24:36.172Z,5.34
2022-12-03T13:28:37.800Z,5.20
2022-12-03T13:32:42.722Z,5.16
2022-12-03T13:36:47.486Z,5.05
2022-12-03T13:41:02.519Z,4.99
2022-12-03T13:45:27.181Z,4.98
2022-12-03T13:49:29.127Z,4.97
2022-12-03T13:53:38.452Z,4.91
2022-12-03T13:57:41.190Z,4.86
2022-12-03T14:01:44.144Z,4.82
2022-12-03T14:05:45.895Z,4.83
2022-12-03T14:09:48.015Z,4.84
2022-12-03T14:13:49.555Z,4.89
2022-12-03T14:17:51.147Z,4.91
2022-12-03T14:21:52.811Z,4.91
2022-12-03T14:25:54.483Z,4.88
2022-12-03T14:29:56.421Z,4.88
2022-12-03T14:33:58.290Z,4.83
2022-12-03T14:37:59.996Z,4.85
2022-12-03T14:42:13.798Z,4.81
2022-12-03T14:46:15.388Z,4.73
2022-12-03T14:50:17.457Z,4.74
2022-12-03T14:54:19.279Z,4.81
2022-12-03T14:58:20.962Z,4.86
2022-12-03T15:02:22.782Z,4.83
2022-12-03T15:06:24.462Z,4.86
2022-12-03T15:10:26.018Z,4.84
2022-12-03T15:14:28.062Z,4.86
2022-12-03T15:18:31.175Z,4.79
2022-12-03T15:22:32.803Z,4.66
2022-12-03T15:26:34.381Z,4.60
2022-12-03T15:30:36.243Z,4.59
2022-12-03T15:34:37.863Z,4.58
2022-12-03T15:38:39.533Z,4.52
2022-12-03T15:42:41.082Z,4.56
2022-12-03T15:46:42.807Z,4.61
2022-12-03T15:50:44.440Z,4.63
2022-12-03T15:54:46.470Z,4.61
2022-12-03T15:58:48.073Z,4.61
2022-12-03T16:02:53.137Z,4.62
2022-12-03T16:06:54.945Z,4.55
2022-12-03T16:10:56.562Z,4.54
2022-12-03T16:14:58.416Z,4.47
2022-12-03T16:19:00.092Z,4.49
2022-12-03T16:23:01.633Z,4.45
2022-12-03T16:27:04.016Z,4.39
2022-12-03T16:31:06.123Z,4.30
2022-12-03T16:35:08.092Z,4.32
2022-12-03T16:39:09.753Z,4.29
2022-12-03T16:43:11.403Z,4.28
2022-12-03T16:47:13.023Z,4.29
2022-12-03T16:51:14.971Z,4.33
2022-12-03T16:55:16.635Z,4.36
2022-12-03T16:59:18.193Z,4.38
2022-12-03T17:03:20.785Z,4.38
2022-12-03T17:07:22.443Z,4.31
2022-12-03T17:11:24.079Z,4.23
2022-12-03T17:15:25.695Z,4.29
2022-12-03T17:19:28.013Z,4.31
2022-12-03T17:23:29.614Z,4.27
2022-12-03T17:27:31.275Z,4.23
2022-12-03T17:31:38.437Z,4.22
2022-12-03T17:35:43.529Z,4.21
2022-12-03T17:39:45.142Z,4.20
2022-12-03T17:43:46.734Z,4.23
2022-12-03T17:47:48.279Z,4.28
2022-12-03T17:51:49.894Z,4.29
2022-12-03T17:55:51.449Z,4.17
2022-12-03T17:59:53.196Z,4.20
2022-12-03T18:03:55.166Z,4.23
2022-12-03T18:07:56.918Z,4.26
2022-12-03T18:11:58.807Z,4.17
2022-12-03T18:16:00.489Z,4.19
2022-12-03T18:20:02.282Z,4.19
2022-12-03T18:24:04.456Z,4.19
2022-12-03T18:28:06.057Z,4.11
2022-12-03T18:32:27.022Z,4.10
2022-12-03T18:36:35.973Z,4.07
2022-12-03T18:40:38.314Z,4.09
2022-12-03T18:44:45.013Z,4.15
2022-12-03T18:48:50.983Z,4.16
2022-12-03T18:52:52.558Z,4.21
2022-12-03T18:56:54.279Z,4.19
2022-12-03T19:00:55.970Z,4.19
2022-12-03T19:04:57.733Z,4.19
2022-12-03T19:08:59.415Z,4.20
2022-12-03T19:13:01.097Z,4.14
2022-12-03T19:17:03.705Z,4.09
2022-12-03T19:21:10.447Z,4.05
2022-12-03T19:25:12.055Z,4.07
2022-12-03T19:29:13.623Z,4.07
2022-12-03T19:33:18.124Z,4.14
2022-12-03T19:37:20.205Z,4.20
2022-12-03T19:41:23.020Z,4.18
2022-12-03T19:45:24.624Z,4.12
2022-12-03T19:49:26.550Z,4.06
2022-12-03T19:53:30.256Z,4.05
2022-12-03T19:57:32.039Z,4.06
2022-12-03T20:01:36.236Z,4.11
2022-12-03T20:05:40.609Z,4.10
2022-12-03T20:09:42.245Z,4.12
2022-12-03T20:13:44.818Z,4.13
2022-12-03T20:17:46.426Z,4.13
2022-12-03T20:21:48.025Z,4.20
2022-12-03T20:25:49.651Z,4.15
2022-12-03T20:29:51.413Z,4.16
2022-12-03T20:33:56.362Z,4.22
2022-12-03T20:37:57.888Z,4.24
2022-12-03T20:41:59.503Z,4.26
2022-12-03T20:46:13.447Z,4.23
2022-12-03T20:50:15.177Z,4.23
2022-12-03T20:54:16.816Z,4.29
2022-12-03T20:58:18.415Z,4.36
2022-12-03T21:02:20.258Z,4.31
2022-12-03T21:06:24.152Z,4.32
2022-12-03T21:10:44.848Z,4.38
2022-12-03T21:14:46.529Z,4.38
2022-12-03T21:18:48.112Z,4.37
2022-12-03T21:22:50.255Z,4.34
2022-12-03T21:26:52.050Z,4.33
2022-12-03T21:30:53.730Z,4.31
2022-12-03T21:34:55.312Z,4.28
2022-12-03T21:38:57.004Z,4.32
2022-12-03T21:42:58.640Z,4.33
2022-12-03T21:47:11.700Z,4.33
2022-12-03T21:51:17.143Z,4.30
2022-12-03T21:55:18.987Z,4.30
2022-12-03T21:59:20.640Z,4.28
2022-12-03T22:03:22.290Z,4.19
2022-12-03T22:07:24.033Z,4.24
2022-12-03T22:11:25.616Z,4.23
2022-12-03T22:15:27.398Z,4.19
2022-12-03T22:19:29.060Z,4.15
2022-12-03T22:23:31.589Z,4.17
2022-12-03T22:27:33.204Z,4.19
2022-12-03T22:31:34.842Z,4.22
2022-12-03T22:35:36.436Z,4.17
2022-12-03T22:39:37.988Z,4.16
2022-12-03T22:43:39.687Z,4.16
2022-12-03T22:47:41.259Z,4.15
2022-12-03T22:51:46.221Z,4.06
2022-12-03T22:55:55.848Z,4.12
2022-12-03T22:59:57.561Z,4.19
2022-12-03T23:04:00.176Z,4.16
2022-12-03T23:08:02.014Z,4.14
2022-12-03T23:12:04.036Z,4.16
2022-12-03T23:16:06.420Z,4.11
2022-12-03T23:20:09.781Z,4.05
2022-12-03T23:24:11.435Z,4.00
2022-12-03T23:28:13.064Z,3.93
2022-12-03T23:32:14.715Z,3.97
2022-12-03T23:36:16.810Z,3.92
2022-12-03T23:40:18.651Z,3.92
2022-12-03T23:44:20.382Z,3.91
2022-12-03T23:48:21.908Z,3.88
2022-12-03T23:52:23.634Z,3.86
2022-12-03T23:56:28.385Z,3.91
